createdAt,value
2019-01-25T00:00:15.477Z,98085.33
2019-01-25T00:01:23.400Z,98080.94
2019-01-25T00:02:31.197Z,98074.91
2019-01-25T00:03:39.085Z,98073.60
2019-01-25T00:04:47.232Z,98073.60
2019-01-25T00:05:55.089Z,98075.77
2019-01-25T00:07:02.937Z,98076.66
2019-01-25T00:08:11.019Z,98074.11
2019-01-25T00:09:18.905Z,98081.48
2019-01-25T00:10:26.747Z,98080.19
2019-01-25T00:11:34.385Z,98074.61
2019-01-25T00:12:42.636Z,98075.45
2019-01-25T00:13:50.734Z,98075.06
2019-01-25T00:14:58.586Z,98078.95
2019-01-25T00:16:06.879Z,98072.07
2019-01-25T00:17:14.633Z,98083.72
2019-01-25T00:18:22.508Z,98079.84
2019-01-25T00:19:30.357Z,98080.25
2019-01-25T00:20:38.206Z,98075.13
2019-01-25T00:21:45.906Z,98080.34
2019-01-25T00:22:53.508Z,98084.73
2019-01-25T00:24:01.192Z,98082.98
2019-01-25T00:25:09.395Z,98083.38
2019-01-25T00:26:17.492Z,98083.29
2019-01-25T00:27:25.111Z,98083.13
2019-01-25T00:28:32.943Z,98088.60
2019-01-25T00:29:41.061Z,98086.34
2019-01-25T00:30:48.861Z,98089.28
2019-01-25T00:31:56.679Z,98090.98
2019-01-25T00:33:04.946Z,98090.13
2019-01-25T00:34:12.833Z,98097.81
2019-01-25T00:35:20.696Z,98099.16
2019-01-25T00:36:28.490Z,98093.08
2019-01-25T00:37:36.692Z,98090.98
2019-01-25T00:38:44.566Z,98092.23
2019-01-25T00:39:52.258Z,98100.00
2019-01-25T00:40:59.784Z,98096.16
2019-01-25T00:42:07.777Z,98100.89
2019-01-25T00:43:15.867Z,98104.27
2019-01-25T00:44:23.583Z,98096.80
2019-01-25T00:45:31.707Z,98099.39
2019-01-25T00:46:39.512Z,98101.06
2019-01-25T00:47:47.654Z,98100.17
2019-01-25T00:48:56.579Z,98100.12
2019-01-25T00:50:07.234Z,98102.27
2019-01-25T00:51:15.278Z,98105.66
2019-01-25T00:52:23.039Z,98091.11
2019-01-25T00:53:30.900Z,98102.78
2019-01-25T00:54:39.495Z,98099.34
2019-01-25T00:55:47.502Z,98101.47
2019-01-25T00:56:55.394Z,98105.35
2019-01-25T00:58:04.081Z,98103.16
2019-01-25T00:59:12.020Z,98096.64
2019-01-25T01:00:26.343Z,98098.33
2019-01-25T01:01:35.177Z,98100.03
2019-01-25T01:02:42.998Z,98092.23
2019-01-25T01:03:51.039Z,98088.30
2019-01-25T01:04:59.149Z,98091.29
2019-01-25T01:06:07.216Z,98092.88
2019-01-25T01:07:15.129Z,98095.03
2019-01-25T01:08:23.250Z,98095.92
2019-01-25T01:09:31.484Z,98094.23
2019-01-25T01:10:39.340Z,98090.74
2019-01-25T01:11:47.404Z,98087.30
2019-01-25T01:12:55.148Z,98092.03
2019-01-25T01:14:02.959Z,98087.69
2019-01-25T01:15:15.326Z,98084.59
2019-01-25T01:16:23.181Z,98097.00
2019-01-25T01:17:30.901Z,98094.84
2019-01-25T01:18:38.857Z,98100.38
2019-01-25T01:19:46.571Z,98106.00
2019-01-25T01:20:54.853Z,98100.42
2019-01-25T01:22:02.764Z,98100.89
2019-01-25T01:23:10.609Z,98099.58
2019-01-25T01:24:18.375Z,98102.19
2019-01-25T01:25:26.222Z,98106.97
2019-01-25T01:26:34.079Z,98102.73
2019-01-25T01:27:41.786Z,98103.19
2019-01-25T01:28:50.501Z,98097.10
2019-01-25T01:29:58.398Z,98106.57
2019-01-25T01:31:06.094Z,98100.09
2019-01-25T01:32:13.885Z,98103.03
2019-01-25T01:33:21.916Z,98096.94
2019-01-25T01:34:30.067Z,98090.01
2019-01-25T01:35:38.185Z,98094.34
2019-01-25T01:36:45.762Z,98095.14
2019-01-25T01:37:54.261Z,98091.20
2019-01-25T01:39:02.237Z,98091.75
2019-01-25T01:40:24.241Z,98093.39
2019-01-25T01:41:32.096Z,98089.89
2019-01-25T01:42:40.034Z,98081.22
2019-01-25T01:43:47.990Z,98087.64
2019-01-25T01:44:55.686Z,98084.16
2019-01-25T01:46:03.518Z,98084.60
2019-01-25T01:47:11.686Z,98083.30
2019-01-25T01:48:19.421Z,98080.38
2019-01-25T01:49:27.264Z,98079.69
2019-01-25T01:50:35.207Z,98081.88
2019-01-25T01:51:43.311Z,98075.88
2019-01-25T01:52:51.346Z,98078.02
2019-01-25T01:53:59.203Z,98078.84
2019-01-25T01:55:07.652Z,98082.19
2019-01-25T01:56:15.491Z,98080.44
2019-01-25T01:57:23.480Z,98073.04
2019-01-25T01:58:31.680Z,98079.02
2019-01-25T01:59:39.665Z,98082.01
2019-01-25T02:00:47.806Z,98079.36
2019-01-25T02:01:55.916Z,98075.88
2019-01-25T02:03:03.680Z,98076.66
2019-01-25T02:04:11.386Z,98077.05
2019-01-25T02:05:19.478Z,98074.06
2019-01-25T02:06:27.357Z,98077.90
2019-01-25T02:07:35.321Z,98080.14
2019-01-25T02:08:43.635Z,98075.86
2019-01-25T02:09:51.503Z,98078.47
2019-01-25T02:10:59.141Z,98078.45
2019-01-25T02:12:06.996Z,98074.95
2019-01-25T02:13:15.235Z,98075.70
2019-01-25T02:14:23.297Z,98077.38
2019-01-25T02:15:31.143Z,98074.68
2019-01-25T02:16:39.282Z,98073.28
2019-01-25T02:17:47.157Z,98069.78
2019-01-25T02:18:55.068Z,98073.60
2019-01-25T02:20:02.960Z,98073.60
2019-01-25T02:21:11.156Z,98068.87
2019-01-25T02:22:18.902Z,98075.41
2019-01-25T02:23:26.835Z,98075.02
2019-01-25T02:24:34.842Z,98074.73
2019-01-25T02:25:42.564Z,98079.52
2019-01-25T02:26:50.167Z,98080.09
2019-01-25T02:27:58.025Z,98075.88
2019-01-25T02:29:06.339Z,98072.94
2019-01-25T02:30:21.157Z,98073.84
2019-01-25T02:31:29.044Z,98077.28
2019-01-25T02:32:36.840Z,98075.13
2019-01-25T02:33:44.627Z,98070.80
2019-01-25T02:34:52.840Z,98073.28
2019-01-25T02:36:00.995Z,98071.52
2019-01-25T02:37:09.219Z,98069.33
2019-01-25T02:38:17.262Z,98068.03
2019-01-25T02:39:25.386Z,98074.13
2019-01-25T02:40:38.937Z,98069.38
2019-01-25T02:41:42.772Z,98068.50
2019-01-25T02:42:50.492Z,98065.91
2019-01-25T02:43:58.448Z,98070.34
2019-01-25T02:45:10.274Z,98061.38
2019-01-25T02:46:18.180Z,98068.27
2019-01-25T02:47:26.077Z,98064.44
2019-01-25T02:48:33.965Z,98070.80
2019-01-25T02:49:41.942Z,98070.69
2019-01-25T02:50:49.640Z,98075.41
2019-01-25T02:51:57.495Z,98077.45
2019-01-25T02:53:05.648Z,98071.30
2019-01-25T02:54:13.539Z,98074.28
2019-01-25T02:55:21.746Z,98078.06
2019-01-25T02:56:29.784Z,98078.91
2019-01-25T02:57:37.454Z,98075.41
2019-01-25T02:58:45.236Z,98073.20
2019-01-25T02:59:53.379Z,98071.91
2019-01-25T03:01:01.161Z,98074.80
2019-01-25T03:02:08.978Z,98082.97
2019-01-25T03:03:16.881Z,98084.32
2019-01-25T03:04:24.990Z,98079.69
2019-01-25T03:05:32.927Z,98081.45
2019-01-25T03:06:42.484Z,98083.70
2019-01-25T03:07:50.662Z,98083.30
2019-01-25T03:08:58.718Z,98079.36
2019-01-25T03:10:13.618Z,98087.52
2019-01-25T03:11:21.476Z,98082.28
2019-01-25T03:12:29.876Z,98082.28
2019-01-25T03:13:37.528Z,98085.22
2019-01-25T03:14:45.448Z,98079.98
2019-01-25T03:15:53.903Z,98089.78
2019-01-25T03:17:01.970Z,98085.78
2019-01-25T03:18:09.612Z,98090.55
2019-01-25T03:19:17.199Z,98086.66
2019-01-25T03:20:26.457Z,98089.25
2019-01-25T03:21:34.327Z,98088.80
2019-01-25T03:22:42.223Z,98090.84
2019-01-25T03:23:50.115Z,98091.61
2019-01-25T03:24:58.130Z,98088.13
2019-01-25T03:26:05.675Z,98086.00
2019-01-25T03:27:13.574Z,98087.75
2019-01-25T03:28:21.216Z,98088.19
2019-01-25T03:29:29.209Z,98088.17
2019-01-25T03:30:37.263Z,98085.12
2019-01-25T03:31:44.987Z,98086.83
2019-01-25T03:32:52.918Z,98085.02
2019-01-25T03:34:00.710Z,98084.97
2019-01-25T03:35:11.323Z,98089.66
2019-01-25T03:36:19.165Z,98087.51
2019-01-25T03:37:27.171Z,98087.11
2019-01-25T03:38:35.025Z,98090.21
2019-01-25T03:39:42.752Z,98087.56
2019-01-25T03:40:55.293Z,98087.51
2019-01-25T03:42:00.251Z,98087.51
2019-01-25T03:43:08.089Z,98083.99
2019-01-25T03:44:15.785Z,98080.50
2019-01-25T03:45:23.899Z,98079.99
2019-01-25T03:46:31.702Z,98084.73
2019-01-25T03:47:39.260Z,98084.34
2019-01-25T03:48:47.054Z,98089.45
2019-01-25T03:49:54.979Z,98088.49
2019-01-25T03:51:03.112Z,98089.28
2019-01-25T03:52:10.709Z,98082.34
2019-01-25T03:53:18.328Z,98084.04
2019-01-25T03:54:26.537Z,98080.15
2019-01-25T03:55:34.325Z,98084.04
2019-01-25T03:56:42.162Z,98083.17
2019-01-25T03:57:49.748Z,98080.92
2019-01-25T03:58:57.808Z,98076.58
2019-01-25T04:00:12.866Z,98078.66
2019-01-25T04:01:20.565Z,98086.83
2019-01-25T04:02:28.690Z,98076.47
2019-01-25T04:03:36.377Z,98085.09
2019-01-25T04:04:44.354Z,98082.11
2019-01-25T04:05:52.280Z,98078.21
2019-01-25T04:07:00.296Z,98084.23
2019-01-25T04:08:08.103Z,98079.06
2019-01-25T04:09:15.911Z,98079.96
2019-01-25T04:10:27.757Z,98082.61
2019-01-25T04:11:35.605Z,98083.57
2019-01-25T04:12:43.499Z,98081.88
2019-01-25T04:13:51.602Z,98082.72
2019-01-25T04:14:59.308Z,98075.41
2019-01-25T04:16:07.024Z,98080.59
2019-01-25T04:17:15.214Z,98081.89
2019-01-25T04:18:23.382Z,98086.69
2019-01-25T04:19:32.038Z,98075.47
2019-01-25T04:20:40.178Z,98080.20
2019-01-25T04:21:47.868Z,98075.07
2019-01-25T04:22:56.164Z,98075.07
2019-01-25T04:24:04.358Z,98079.02
2019-01-25T04:25:18.299Z,98082.45
2019-01-25T04:26:25.991Z,98082.00
2019-01-25T04:27:33.775Z,98080.26
2019-01-25T04:28:42.103Z,98079.75
2019-01-25T04:29:50.377Z,98077.98
2019-01-25T04:30:58.271Z,98083.57
2019-01-25T04:32:06.282Z,98080.97
2019-01-25T04:33:14.122Z,98090.95
2019-01-25T04:34:21.797Z,98089.68
2019-01-25T04:35:29.729Z,98087.06
2019-01-25T04:36:37.861Z,98090.00
2019-01-25T04:37:45.766Z,98092.99
2019-01-25T04:38:53.904Z,98089.55
2019-01-25T04:40:01.526Z,98086.55
2019-01-25T04:41:11.687Z,98088.30
2019-01-25T04:42:18.815Z,98094.40
2019-01-25T04:43:26.503Z,98093.95
2019-01-25T04:44:34.665Z,98097.44
2019-01-25T04:45:42.487Z,98105.17
2019-01-25T04:46:50.283Z,98103.87
2019-01-25T04:47:58.037Z,98106.02
2019-01-25T04:49:05.777Z,98108.22
2019-01-25T04:50:19.499Z,98107.82
2019-01-25T04:51:27.781Z,98100.03
2019-01-25T04:52:35.695Z,98098.73
2019-01-25T04:53:44.093Z,98109.46
2019-01-25T04:54:52.096Z,98112.50
2019-01-25T04:56:00.236Z,98107.82
2019-01-25T04:57:07.964Z,98115.61
2019-01-25T04:58:16.712Z,98117.38
2019-01-25T04:59:28.066Z,98111.28
2019-01-25T05:00:35.710Z,98109.59
2019-01-25T05:01:43.903Z,98109.59
2019-01-25T05:02:58.138Z,98109.98
2019-01-25T05:04:06.233Z,98108.29
2019-01-25T05:05:14.302Z,98113.03
2019-01-25T05:06:22.489Z,98117.31
2019-01-25T05:07:30.388Z,98122.09
2019-01-25T05:08:38.576Z,98121.59
2019-01-25T05:09:46.984Z,98127.57
2019-01-25T05:10:54.950Z,98116.29
2019-01-25T05:12:03.008Z,98121.98
2019-01-25T05:13:11.282Z,98116.80
2019-01-25T05:14:19.009Z,98125.42
2019-01-25T05:15:27.003Z,98125.42
2019-01-25T05:16:35.787Z,98126.37
2019-01-25T05:17:43.555Z,98136.36
2019-01-25T05:18:52.210Z,98134.23
2019-01-25T05:20:00.049Z,98139.03
2019-01-25T05:21:08.334Z,98133.89
2019-01-25T05:22:16.191Z,98138.58
2019-01-25T05:23:24.233Z,98138.53
2019-01-25T05:24:31.971Z,98135.06
2019-01-25T05:25:39.916Z,98129.42
2019-01-25T05:26:47.602Z,98130.72
2019-01-25T05:27:55.588Z,98135.86
2019-01-25T05:29:03.393Z,98136.25
2019-01-25T05:30:13.810Z,98137.55
2019-01-25T05:31:21.576Z,98139.75
2019-01-25T05:32:29.857Z,98140.09
2019-01-25T05:33:38.027Z,98138.74
2019-01-25T05:34:45.685Z,98136.97
2019-01-25T05:35:53.591Z,98138.16
2019-01-25T05:37:01.710Z,98140.25
2019-01-25T05:38:09.590Z,98142.31
2019-01-25T05:39:17.906Z,98137.07
2019-01-25T05:40:27.473Z,98132.73
2019-01-25T05:41:35.445Z,98145.25
2019-01-25T05:42:43.256Z,98138.77
2019-01-25T05:45:40.641Z,98142.08
2019-01-25T05:46:48.760Z,98141.77
2019-01-25T05:47:56.498Z,98152.53
2019-01-25T05:49:04.820Z,98149.55
2019-01-25T05:50:15.035Z,98144.86
2019-01-25T05:51:22.756Z,98137.07
2019-01-25T05:52:30.613Z,98134.93
2019-01-25T05:53:38.351Z,98140.46
2019-01-25T05:54:46.295Z,98143.88
2019-01-25T05:55:54.233Z,98147.61
2019-01-25T05:57:01.940Z,98151.56
2019-01-25T05:58:10.922Z,98148.45
2019-01-25T05:59:23.369Z,98150.20
2019-01-25T06:00:32.680Z,98148.83
2019-01-25T06:01:42.014Z,98143.98
2019-01-25T06:02:49.947Z,98142.57
2019-01-25T06:03:57.868Z,98146.78
2019-01-25T06:05:07.808Z,98151.47
2019-01-25T06:06:15.536Z,98159.13
2019-01-25T06:07:27.480Z,98152.17
2019-01-25T06:08:43.424Z,98148.28
2019-01-25T06:09:45.336Z,98153.92
2019-01-25T06:10:53.331Z,98153.59
2019-01-25T06:12:03.217Z,98147.58
2019-01-25T06:13:11.289Z,98141.14
2019-01-25T06:14:19.051Z,98142.05
2019-01-25T06:15:29.087Z,98143.00
2019-01-25T06:16:36.993Z,98153.38
2019-01-25T06:17:44.620Z,98155.16
2019-01-25T06:18:52.812Z,98151.23
2019-01-25T06:20:02.249Z,98146.07
2019-01-25T06:21:10.244Z,98149.52
2019-01-25T06:22:18.348Z,98159.16
2019-01-25T06:23:26.606Z,98165.25
2019-01-25T06:24:34.541Z,98169.99
2019-01-25T06:25:42.584Z,98169.48
2019-01-25T06:26:50.720Z,98170.26
2019-01-25T06:27:58.921Z,98167.10
2019-01-25T06:29:06.980Z,98170.94
2019-01-25T06:30:16.920Z,98174.76
2019-01-25T06:31:24.844Z,98176.84
2019-01-25T06:32:32.999Z,98171.54
2019-01-25T06:33:41.106Z,98174.12
2019-01-25T06:34:49.679Z,98178.35
2019-01-25T06:35:57.597Z,98180.44
2019-01-25T06:37:06.560Z,98180.36
2019-01-25T06:38:14.440Z,98180.76
2019-01-25T06:39:22.550Z,98182.39
2019-01-25T06:40:30.822Z,98185.36
2019-01-25T06:41:43.967Z,98178.42
2019-01-25T06:42:48.324Z,98181.04
2019-01-25T06:43:56.372Z,98182.31
2019-01-25T06:45:05.402Z,98180.95
2019-01-25T06:46:13.502Z,98172.72
2019-01-25T06:47:21.315Z,98175.71
2019-01-25T06:48:29.606Z,98187.34
2019-01-25T06:49:38.183Z,98186.09
2019-01-25T06:50:46.331Z,98185.65
2019-01-25T06:51:54.290Z,98188.19
2019-01-25T06:53:02.166Z,98191.23
2019-01-25T06:54:10.277Z,98196.38
2019-01-25T06:55:19.708Z,98199.88
2019-01-25T06:56:27.592Z,98202.87
2019-01-25T06:57:40.499Z,98198.97
2019-01-25T06:59:05.181Z,98203.75
2019-01-25T07:00:18.598Z,98198.95
2019-01-25T07:01:30.823Z,98195.90
2019-01-25T07:02:39.394Z,98190.25
2019-01-25T07:03:47.262Z,98185.84
2019-01-25T07:04:55.651Z,98190.53
2019-01-25T07:06:03.803Z,98189.16
2019-01-25T07:07:13.857Z,98194.29
2019-01-25T07:08:22.065Z,98194.23
2019-01-25T07:09:30.068Z,98193.78
2019-01-25T07:10:38.687Z,98184.23
2019-01-25T07:11:51.461Z,98188.53
2019-01-25T07:12:56.162Z,98184.63
2019-01-25T07:14:03.957Z,98183.77
2019-01-25T07:15:14.302Z,98189.44
2019-01-25T07:16:22.434Z,98189.88
2019-01-25T07:17:30.461Z,98189.44
2019-01-25T07:18:38.597Z,98186.39
2019-01-25T07:19:47.121Z,98187.20
2019-01-25T07:20:56.069Z,98187.15
2019-01-25T07:22:04.383Z,98193.13
2019-01-25T07:23:12.479Z,98203.90
2019-01-25T07:24:20.728Z,98194.75
2019-01-25T07:25:29.435Z,98196.84
2019-01-25T07:26:37.640Z,98195.08
2019-01-25T07:27:46.589Z,98193.72
2019-01-25T07:28:55.350Z,98198.44
2019-01-25T07:30:04.023Z,98195.84
2019-01-25T07:31:13.735Z,98195.84
2019-01-25T07:32:27.181Z,98197.99
2019-01-25T07:33:35.754Z,98196.23
2019-01-25T07:34:45.664Z,98195.78
2019-01-25T07:35:54.501Z,98205.73
2019-01-25T07:37:03.090Z,98202.23
2019-01-25T07:38:12.322Z,98203.52
2019-01-25T07:39:24.050Z,98204.43
2019-01-25T07:40:35.119Z,98203.19
2019-01-25T07:41:45.870Z,98200.67
2019-01-25T07:42:54.674Z,98208.47
2019-01-25T07:44:03.069Z,98204.23
2019-01-25T07:45:13.679Z,98211.07
2019-01-25T07:46:22.150Z,98210.22
2019-01-25T07:47:32.809Z,98216.64
2019-01-25T07:48:41.877Z,98217.82
2019-01-25T07:49:50.295Z,98214.31
2019-01-25T07:50:59.189Z,98218.98
2019-01-25T07:52:07.416Z,98220.61
2019-01-25T07:53:17.760Z,98218.80
2019-01-25T07:54:28.444Z,98216.52
2019-01-25T07:55:36.566Z,98222.05
2019-01-25T07:56:45.149Z,98216.79
2019-01-25T07:57:53.136Z,98218.52
2019-01-25T07:59:01.112Z,98224.11
2019-01-25T08:00:17.053Z,98221.91
2019-01-25T08:01:25.143Z,98221.84
2019-01-25T08:02:34.412Z,98220.48
2019-01-25T08:03:44.780Z,98215.66
2019-01-25T08:04:53.181Z,98218.98
2019-01-25T08:06:01.889Z,98215.87
2019-01-25T08:07:10.069Z,98219.68
2019-01-25T08:08:17.845Z,98217.02
2019-01-25T08:09:25.739Z,98213.45
2019-01-25T08:10:34.034Z,98214.66
2019-01-25T08:11:42.093Z,98218.90
2019-01-25T08:12:50.168Z,98213.63
2019-01-25T08:13:58.014Z,98214.39
2019-01-25T08:15:10.836Z,98207.83
2019-01-25T08:16:18.669Z,98211.61
2019-01-25T08:17:26.951Z,98209.44
2019-01-25T08:18:36.000Z,98205.02
2019-01-25T08:19:44.145Z,98210.55
2019-01-25T08:20:52.526Z,98216.51
2019-01-25T08:22:01.066Z,98213.00
2019-01-25T08:23:09.049Z,98210.00
2019-01-25T08:24:17.088Z,98215.69
2019-01-25T08:25:24.920Z,98215.69
2019-01-25T08:26:41.832Z,98220.02
2019-01-25T08:27:53.920Z,98226.40
2019-01-25T08:29:02.189Z,98224.58
2019-01-25T08:30:19.950Z,98231.72
2019-01-25T08:31:28.628Z,98229.18
2019-01-25T08:32:36.309Z,98230.42
2019-01-25T08:33:44.087Z,98238.16
2019-01-25T08:34:52.699Z,98238.59
2019-01-25T08:36:00.457Z,98238.86
2019-01-25T08:37:08.618Z,98236.19
2019-01-25T08:38:16.653Z,98236.58
2019-01-25T08:39:24.542Z,98239.94
2019-01-25T08:40:32.707Z,98243.06
2019-01-25T08:41:40.544Z,98242.19
2019-01-25T08:42:48.569Z,98242.80
2019-01-25T08:43:57.230Z,98247.61
2019-01-25T08:45:07.602Z,98251.17
2019-01-25T08:46:15.805Z,98250.15
2019-01-25T08:47:24.049Z,98253.41
2019-01-25T08:48:32.118Z,98255.77
2019-01-25T08:49:40.313Z,98256.61
2019-01-25T08:50:48.588Z,98257.13
2019-01-25T08:51:56.959Z,98260.63
2019-01-25T08:53:04.802Z,98255.04
2019-01-25T08:54:14.229Z,98260.18
2019-01-25T08:55:22.587Z,98262.27
2019-01-25T08:56:30.710Z,98267.86
2019-01-25T08:57:38.675Z,98262.78
2019-01-25T08:58:46.502Z,98262.66
2019-01-25T08:59:54.495Z,98268.77
2019-01-25T09:01:02.469Z,98272.61
2019-01-25T09:02:11.637Z,98265.59
2019-01-25T09:03:19.183Z,98273.98
2019-01-25T09:04:27.257Z,98270.26
2019-01-25T09:05:35.217Z,98270.45
2019-01-25T09:06:44.932Z,98275.45
2019-01-25T09:07:53.525Z,98273.77
2019-01-25T09:09:01.345Z,98270.70
2019-01-25T09:10:16.201Z,98272.03
2019-01-25T09:11:24.172Z,98278.51
2019-01-25T09:12:32.151Z,98288.34
2019-01-25T09:13:40.319Z,98281.11
2019-01-25T09:14:48.105Z,98281.11
2019-01-25T09:15:56.032Z,98289.18
2019-01-25T09:17:04.035Z,98288.00
2019-01-25T09:18:12.569Z,98284.68
2019-01-25T09:19:20.664Z,98281.69
2019-01-25T09:20:28.528Z,98285.05
2019-01-25T09:21:36.321Z,98288.19
2019-01-25T09:22:44.003Z,98285.30
2019-01-25T09:23:51.996Z,98284.64
2019-01-25T09:25:00.157Z,98280.77
2019-01-25T09:26:08.124Z,98288.73
2019-01-25T09:27:16.086Z,98288.41
2019-01-25T09:28:23.822Z,98287.22
2019-01-25T09:29:31.825Z,98289.42
2019-01-25T09:30:39.773Z,98283.32
2019-01-25T09:31:47.848Z,98282.36
2019-01-25T09:32:55.847Z,98287.83
2019-01-25T09:34:03.908Z,98287.38
2019-01-25T09:35:12.110Z,98282.95
2019-01-25T09:36:20.170Z,98283.82
2019-01-25T09:37:28.543Z,98284.52
2019-01-25T09:38:36.537Z,98277.28
2019-01-25T09:39:44.252Z,98281.30
2019-01-25T09:40:52.563Z,98284.93
2019-01-25T09:42:00.694Z,98277.75
2019-01-25T09:43:08.833Z,98283.42
2019-01-25T09:44:17.290Z,98278.20
2019-01-25T09:45:25.434Z,98280.70
2019-01-25T09:46:33.674Z,98274.55
2019-01-25T09:47:41.940Z,98281.09
2019-01-25T09:48:50.649Z,98285.04
2019-01-25T09:49:58.509Z,98281.67
2019-01-25T09:51:06.841Z,98284.06
2019-01-25T09:52:16.001Z,98280.80
2019-01-25T09:53:24.098Z,98278.41
2019-01-25T09:54:32.166Z,98275.16
2019-01-25T09:55:40.404Z,98277.00
2019-01-25T09:56:48.720Z,98275.91
2019-01-25T09:58:07.529Z,98270.98
2019-01-25T09:59:15.869Z,98282.15
2019-01-25T10:00:46.931Z,98267.54
2019-01-25T10:01:55.233Z,98271.87
2019-01-25T10:03:03.346Z,98266.83
2019-01-25T10:04:11.329Z,98268.14
2019-01-25T10:05:19.320Z,98265.59
2019-01-25T10:06:27.323Z,98263.70
2019-01-25T10:07:35.198Z,98260.45
2019-01-25T10:08:44.435Z,98263.45
2019-01-25T10:09:52.817Z,98266.24
2019-01-25T10:11:01.249Z,98269.69
2019-01-25T10:12:08.888Z,98258.84
2019-01-25T10:13:17.032Z,98263.11
2019-01-25T10:14:24.920Z,98265.51
2019-01-25T10:15:33.295Z,98266.04
2019-01-25T10:16:41.215Z,98260.05
2019-01-25T10:17:48.949Z,98256.20
2019-01-25T10:18:57.000Z,98261.91
2019-01-25T10:20:08.424Z,98264.65
2019-01-25T10:21:16.368Z,98258.15
2019-01-25T10:22:24.114Z,98262.65
2019-01-25T10:23:32.362Z,98262.06
2019-01-25T10:24:40.249Z,98254.52
2019-01-25T10:25:48.127Z,98262.20
2019-01-25T10:26:55.792Z,98258.64
2019-01-25T10:28:03.771Z,98264.86
2019-01-25T10:29:11.849Z,98258.10
2019-01-25T10:30:27.090Z,98257.70
2019-01-25T10:31:35.405Z,98261.88
2019-01-25T10:32:43.688Z,98262.67
2019-01-25T10:33:51.683Z,98262.73
2019-01-25T10:34:59.672Z,98261.88
2019-01-25T10:36:07.707Z,98257.45
2019-01-25T10:37:16.450Z,98258.83
2019-01-25T10:38:24.216Z,98254.68
2019-01-25T10:39:32.684Z,98251.74
2019-01-25T10:40:40.361Z,98252.59
2019-01-25T10:41:48.187Z,98250.39
2019-01-25T10:42:56.555Z,98258.81
2019-01-25T10:44:05.005Z,98254.01
2019-01-25T10:45:17.931Z,98251.72
2019-01-25T10:46:25.806Z,98251.61
2019-01-25T10:47:34.002Z,98249.15
2019-01-25T10:48:42.200Z,98256.22
2019-01-25T10:49:50.319Z,98253.75
2019-01-25T10:50:58.455Z,98257.92
2019-01-25T10:52:06.442Z,98253.09
2019-01-25T10:53:14.540Z,98251.80
2019-01-25T10:54:22.642Z,98246.98
2019-01-25T10:55:30.508Z,98253.03
2019-01-25T10:56:41.926Z,98256.69
2019-01-25T10:57:47.794Z,98260.19
2019-01-25T10:58:55.639Z,98257.59
2019-01-25T11:00:03.943Z,98255.78
2019-01-25T11:01:11.594Z,98260.98
2019-01-25T11:02:19.923Z,98262.99
2019-01-25T11:03:27.869Z,98261.41
2019-01-25T11:04:35.974Z,98271.30
2019-01-25T11:05:43.910Z,98267.45
2019-01-25T11:06:55.227Z,98274.16
2019-01-25T11:08:03.052Z,98267.67
2019-01-25T11:09:10.873Z,98270.56
2019-01-25T11:10:18.655Z,98269.20
2019-01-25T11:11:27.222Z,98272.59
2019-01-25T11:12:36.479Z,98266.27
2019-01-25T11:13:44.553Z,98259.77
2019-01-25T11:14:52.675Z,98262.36
2019-01-25T11:16:00.602Z,98264.66
2019-01-25T11:17:08.651Z,98264.21
2019-01-25T11:18:16.661Z,98266.36
2019-01-25T11:19:24.671Z,98259.77
2019-01-25T11:20:32.589Z,98258.70
2019-01-25T11:21:40.169Z,98257.92
2019-01-25T11:22:48.163Z,98259.61
2019-01-25T11:23:55.927Z,98266.94
2019-01-25T11:25:05.047Z,98259.07
2019-01-25T11:26:12.925Z,98263.88
2019-01-25T11:27:21.241Z,98258.28
2019-01-25T11:28:29.378Z,98253.02
2019-01-25T11:29:37.539Z,98252.83
2019-01-25T11:30:45.218Z,98248.37
2019-01-25T11:31:53.527Z,98258.73
2019-01-25T11:33:01.646Z,98254.43
2019-01-25T11:34:09.596Z,98261.84
2019-01-25T11:35:17.513Z,98264.54
2019-01-25T11:36:25.668Z,98261.16
2019-01-25T11:37:33.625Z,98266.81
2019-01-25T11:38:41.494Z,98268.57
2019-01-25T11:39:49.536Z,98271.69
2019-01-25T11:40:57.793Z,98268.69
2019-01-25T11:42:06.184Z,98268.57
2019-01-25T11:43:14.515Z,98272.86
2019-01-25T11:44:22.692Z,98273.17
2019-01-25T11:45:30.553Z,98265.06
2019-01-25T11:46:38.682Z,98270.69
2019-01-25T11:47:46.578Z,98279.98
2019-01-25T11:48:54.711Z,98284.79
2019-01-25T11:50:03.075Z,98288.91
2019-01-25T11:51:11.046Z,98287.23
2019-01-25T11:52:19.067Z,98285.20
2019-01-25T11:53:26.979Z,98288.53
2019-01-25T11:54:35.077Z,98293.68
2019-01-25T11:55:43.031Z,98288.80
2019-01-25T11:56:50.974Z,98295.41
2019-01-25T11:57:59.096Z,98287.41
2019-01-25T11:59:07.283Z,98287.80
2019-01-25T12:00:29.930Z,98279.30
2019-01-25T12:01:37.764Z,98290.73
2019-01-25T12:02:46.920Z,98284.40
2019-01-25T12:03:54.700Z,98285.64
2019-01-25T12:05:02.486Z,98277.91
2019-01-25T12:06:10.809Z,98279.20
2019-01-25T12:07:18.449Z,98285.25
2019-01-25T12:08:26.473Z,98283.09
2019-01-25T12:09:34.507Z,98286.94
2019-01-25T12:10:42.905Z,98280.78
2019-01-25T12:11:50.966Z,98288.11
2019-01-25T12:12:59.680Z,98291.50
2019-01-25T12:14:07.639Z,98290.20
2019-01-25T12:15:17.753Z,98293.38
2019-01-25T12:16:25.909Z,98288.43
2019-01-25T12:17:33.872Z,98292.25
2019-01-25T12:18:41.972Z,98295.27
2019-01-25T12:19:49.782Z,98289.78
2019-01-25T12:20:58.686Z,98299.62
2019-01-25T12:22:06.509Z,98293.09
2019-01-25T12:23:14.488Z,98303.38
2019-01-25T12:24:23.062Z,98302.85
2019-01-25T12:25:31.192Z,98295.92
2019-01-25T12:26:38.848Z,98297.48
2019-01-25T12:27:46.742Z,98296.84
2019-01-25T12:28:54.672Z,98298.48
2019-01-25T12:30:02.833Z,98297.10
2019-01-25T12:31:10.655Z,98293.48
2019-01-25T12:32:18.850Z,98295.61
2019-01-25T12:33:26.654Z,98296.91
2019-01-25T12:34:34.441Z,98299.70
2019-01-25T12:35:42.263Z,98298.98
2019-01-25T12:36:50.243Z,98300.09
2019-01-25T12:37:58.225Z,98308.39
2019-01-25T12:39:08.612Z,98302.69
2019-01-25T12:40:19.044Z,98293.19
2019-01-25T12:41:27.328Z,98302.85
2019-01-25T12:42:35.241Z,98303.72
2019-01-25T12:43:42.919Z,98303.64
2019-01-25T12:44:50.790Z,98304.89
2019-01-25T12:45:58.656Z,98300.20
2019-01-25T12:47:06.921Z,98298.12
2019-01-25T12:48:14.975Z,98299.09
2019-01-25T12:49:22.901Z,98290.52
2019-01-25T12:50:50.181Z,98289.20
2019-01-25T12:51:58.663Z,98291.34
2019-01-25T12:53:09.788Z,98292.20
2019-01-25T12:54:17.812Z,98296.04
2019-01-25T12:55:26.029Z,98297.79
2019-01-25T12:56:34.122Z,98308.18
2019-01-25T12:57:42.008Z,98303.89
2019-01-25T12:58:49.797Z,98298.75
2019-01-25T12:59:57.460Z,98306.48
2019-01-25T13:01:06.170Z,98303.25
2019-01-25T13:02:14.717Z,98300.40
2019-01-25T13:03:22.655Z,98300.40
2019-01-25T13:04:30.885Z,98302.61
2019-01-25T13:05:38.855Z,98303.80
2019-01-25T13:06:47.049Z,98300.29
2019-01-25T13:07:55.009Z,98297.61
2019-01-25T13:09:02.735Z,98299.19
2019-01-25T13:10:17.423Z,98296.91
2019-01-25T13:11:25.127Z,98303.21
2019-01-25T13:12:33.017Z,98306.41
2019-01-25T13:13:41.053Z,98310.19
2019-01-25T13:14:48.721Z,98314.01
2019-01-25T13:15:56.592Z,98312.20
2019-01-25T13:17:04.662Z,98316.09
2019-01-25T13:18:12.964Z,98314.34
2019-01-25T13:19:20.690Z,98318.78
2019-01-25T13:20:30.868Z,98318.90
2019-01-25T13:21:38.608Z,98318.19
2019-01-25T13:22:46.383Z,98322.20
2019-01-25T13:23:54.292Z,98321.09
2019-01-25T13:25:02.673Z,98323.83
2019-01-25T13:26:10.459Z,98333.55